Waterloo Airport
CYKF : now visible

Airfield :











YOU CAN JOIN US ON...

 
LOGIN :

Register | Disclaimer

   EN    FR    IT 

 









Legend :    VFR   Marginal VFR   IFR   Intensive IFR   Very Intensive IFR
Visi :
Ceiling :
>= 8 km
>= 3000ft
5 to 8 km
1000 to 3000 ft
1500m to 5 km
500 to 1000 ft
800 to 1500m
200 to 500 ft
< 800m
< 200 ft
Symbols :   Thunderstorms  Fog  Heavy snow  Heavy precipitations  Wind > 20 kt







- Airport Elevation : 1054 ft
- IATA code : YKF


CYKF - Waterloo

CURRENT METAR :
  • 202000Z AUTO 19008KT 150V230 9SM FEW044 BKN210 27/18 A3014 RMK SLP208 DENSITY ALT 2300FT

EXPIRED METARs :
  • 201900Z AUTO 16010KT 140V210 9SM FEW037 BKN210 26/17 A3016 RMK SLP212 DENSITY ALT 2300FT
  • 201857Z AUTO 18009KT 6SM HZ FEW037 BKN210 26/16 A3016 RMK SLP212 DENSITY ALT 2300FT
  • 201848Z AUTO 19006KT 5SM HZ BKN210 26/17 A3016 RMK SLP213 DENSITY ALT 2300FT
  • 201800Z AUTO 19008KT 140V230 9SM BKN200 25/17 A3017 RMK SLP218 DENSITY ALT 2100FT
  • 201726Z AUTO 17006KT 130V200 6SM HZ BKN200 25/16 A3018 RMK SLP222 DENSITY ALT 2100FT
  • 201718Z AUTO 16005KT 130V200 5SM HZ SCT200 25/16 A3018 RMK SLP222 DENSITY ALT 2100FT
  • 201710Z AUTO 18006KT 150V220 6SM HZ SCT200 25/17 A3018 RMK SLP222 DENSITY ALT 2100FT

TAF TAF CYKF
Valid from the 20 at 20:00 until the 21 at 08:00 UTC


201938Z 2020/2108 17010KT P6SM SCT220
FM210200 VRB03KT P6SM FEW060 FEW220
PROB30 2106/2108 1SM BR RMK FCST BASED ON AUTO OBS. NXT FCST BY 210200Z
No reported NOTAMs for that airfield.



MET'MAP, your aeronautical weather chart ! - Copyright ORBIFLY December 2007 - Disclaimer

ORBIFLY MET'MAP TEAM :

Programming & Development : Alexandra Zaïnal
Concept & Development : Baudouin d'Aumeries
Co-Development & Prog : Marc-Olivier Méhu
Technical & hardware support : Manuel Goepfert

Contact : metmap@orbifly.com




SOURCES & CREDITS :

   NOAA       Earth
Advisory